アダック島 の空港の天気 - METARとTAF

アダック空港 ( PADK / ADK ) - アメリカ アラスカ州アダック島
飛行場実況気象(Metar)
観測時間08/10 22:22 AKDT (08/11 06:22 UTC)
風向・風速南 4m/s
視程10km以上
天気現象
全天を覆う雲 雲底高度 490m
気温10℃
湿度94%
気圧1004hPa
METARPADK 110622Z AUTO 17008KT 8SM OVC016 10/09 A2965 RMK AO2
過去の天気等 Google飛行場航空写真 Wunderground天気予報

過去48時間のMETAR

飛行場予報(TAF)
データがありません